Nearby METAR Reports

KLNK - Lincoln, Nebraska, USA
Distance from station: WNW 8mi, 13km
Updated: Mon, 24-Jul-2017 6:54am CDT
Clear
Clear
 Wind from calm
Wind: Calm
Temperature: 63°F , 17°C
Dew Point: 61°F , 16°C
Humidity: 94%
Barometer: 30.04 inHg , 1017.3 hPa
Clouds: Clear
Visibility: 10 miles , 16 km
2017/07/24 11:54 KLNK 241154Z 00000KT 10SM CLR 17/16 A3004 RMK AO2 SLP163 T01720156 10211 20167 53009
KAHQ - Wahoo, Nebraska, USA
Distance from station: N 31mi, 49km
Updated: Mon, 24-Jul-2017 7:35am CDT
Clear
Clear
 Wind from calm
Wind: Calm
Temperature: 63°F , 17°C
Dew Point: 61°F , 16°C
Humidity: 94%
Barometer: 30.04 inHg , 1017.3 hPa
Clouds: Clear
Visibility: 10 miles , 16 km
2017/07/24 12:35 KAHQ 241235Z AUTO 00000KT 10SM CLR 17/16 A3004 RMK AO2 T01700161
 
KBIE - Beatrice Municip, Nebraska, USA
Distance from station: S 36mi, 57km
Updated: Mon, 24-Jul-2017 7:35am CDT
Clear
Clear
 Wind from E
Wind: E 5 mph , 7 km/h
Temperature: 66°F , 19°C
Dew Point: 63°F , 17°C
Humidity: 88%
Barometer: 30.03 inHg , 1016.9 hPa
Clouds: Clear
Visibility: 10 miles , 16 km
2017/07/24 12:35 KBIE 241235Z AUTO 09004KT 10SM CLR 19/17 A3003 RMK AO2 T01910168
KMLE - Omaha/Millard, Nebraska, USA
Distance from station: NE 39mi, 63km
Updated: Mon, 24-Jul-2017 7:35am CDT
Partly Cloudy
Partly Cloudy
 Wind from SE
Wind: SE 3 mph , 6 km/h
Temperature: 72°F , 22°C
Dew Point: 63°F , 17°C
Humidity: 73%
Barometer: 30.03 inHg , 1016.9 hPa
Clouds: Partly Cloudy
Visibility: 10 miles , 16 km
Cloud details: Partly Cloudy 11000 ft
2017/07/24 12:35 KMLE 241235Z AUTO 13003KT 10SM SCT110 22/17 A3003 RMK AO2 T02150171
 
KPMV - Plattsmouth Muni, Nebraska, USA
Distance from station: ENE 39mi, 63km
Updated: Mon, 24-Jul-2017 7:35am CDT
Clear
Clear
 Wind from calm
Wind: Calm
Temperature: 64°F , 18°C
Dew Point: 61°F , 16°C
Humidity: 88%
Barometer: 30.04 inHg , 1017.3 hPa
Clouds: Clear
Visibility: 10 miles , 16 km
2017/07/24 12:35 KPMV 241235Z AUTO 00000KT 10SM CLR 18/16 A3004 RMK AO2 T01830161
KAFK - Nebraska City, Nebraska, USA
Distance from station: ESE 43mi, 69km
Updated: Mon, 24-Jul-2017 7:35am CDT
Clear
Clear
 Wind from calm
Wind: Calm
Temperature: 66°F , 19°C
Dew Point: 66°F , 19°C
Humidity: 100%
Barometer: 30.04 inHg , 1017.3 hPa
Clouds: Clear
Visibility: 10 miles , 16 km
2017/07/24 12:35 KAFK 241235Z AUTO 00000KT 10SM CLR 19/19 A3004 RMK AO2 T01860186
 
KOFF - Offutt Afb/Belle, Nebraska, USA
Distance from station: ENE 44mi, 70km
Updated: Mon, 24-Jul-2017 6:56am CDT
Clear
Clear
 Wind from NE
Wind: NE 3 mph , 6 km/h
Temperature: 63°F , 17°C
Dew Point: 61°F , 16°C
Humidity: 94%
Barometer: 30.03 inHg , 1016.9 hPa
Clouds: Clear
Visibility: 10 miles , 16 km
2017/07/24 11:56 KOFF 241156Z AUTO 05003KT 10SM CLR 17/16 A3003 RMK AO2 SLP166 T01680155 10199 20150 52009 $
KFET - Fremont Muni Arp, Nebraska, USA
Distance from station: N 46mi, 74km
Updated: Mon, 24-Jul-2017 7:35am CDT
Partly Cloudy
Partly Cloudy
 Wind from E
Wind: E 6 mph , 9 km/h
Temperature: 66°F , 19°C
Dew Point: 61°F , 16°C
Humidity: 83%
Barometer: 30.04 inHg , 1017.3 hPa
Clouds: Partly Cloudy
Visibility: 10 miles , 16 km
Cloud details: Partly Cloudy 12000 ft
2017/07/24 12:35 KFET 241235Z AUTO 10005KT 10SM SCT120 19/16 A3004 RMK AO2 T01870157
 
KBTA - Blair Muni, Nebraska, USA
Distance from station: NNE 51mi, 82km
Updated: Mon, 24-Jul-2017 7:35am CDT
Partly Cloudy
Partly Cloudy
 Wind from NE
Wind: NE 5 mph , 7 km/h
Temperature: 64°F , 18°C
Dew Point: 63°F , 17°C
Humidity: 94%
Barometer: 30.04 inHg , 1017.3 hPa
Clouds: Partly Cloudy
Visibility: 10 miles , 16 km
Cloud details: Partly Cloudy 11000 ft
2017/07/24 12:35 KBTA 241235Z AUTO 05004KT 10SM SCT110 18/17 A3004 RMK AO2 T01840167
KJYR - York, Nebraska, USA
Distance from station: W 52mi, 84km
Updated: Mon, 24-Jul-2017 7:35am CDT
Clear
Clear
 Wind from SE
Wind: SE 8 mph , 13 km/h
Temperature: 64°F , 18°C
Dew Point: 63°F , 17°C
Humidity: 94%
Barometer: 30.04 inHg , 1017.3 hPa
Clouds: Clear
Visibility: 10 miles , 16 km
2017/07/24 12:35 KJYR 241235Z AUTO 14007KT 10SM CLR 18/17 A3004 RMK AO2
 
KOMA - Omaha/Eppley, Nebraska, USA
Distance from station: NE 53mi, 85km
Updated: Mon, 24-Jul-2017 6:52am CDT
Clear
Clear
 Wind from N
Wind: N 6 mph , 9 km/h
Temperature: 63°F , 17°C
Dew Point: 57°F , 14°C
Humidity: 83%
Barometer: 30.03 inHg , 1016.9 hPa
Clouds: Clear
Visibility: 10 miles , 16 km
2017/07/24 11:52 KOMA 241152Z 35005KT 10SM CLR 17/14 A3003 RMK AO2 SLP163 T01670144 10217 20156 52009
KOLU - Columbus Muni, Nebraska, USA
Distance from station: NW 58mi, 93km
Updated: Mon, 24-Jul-2017 6:56am CDT
Mist, Few clouds
Mist, Few clouds
 Wind from ENE
Wind: ENE 5 mph , 7 km/h
Temperature: 61°F , 16°C
Dew Point: 59°F , 15°C
Humidity: 94%
Barometer: 30.04 inHg , 1017.3 hPa
Summary: Mist
Clouds: Few Clouds
Visibility: 6 miles , 10 km
Cloud details: Few Clouds 12000 ft
2017/07/24 11:56 KOLU 241156Z AUTO 07004KT 6SM BR FEW120 16/15 A3004 RMK AO2 SLP165 T01610150 10172 20144 51007